createdAt,value
2023-11-18T00:02:19.039Z,63.92
2023-11-18T00:05:22.501Z,63.92
2023-11-18T00:08:24.436Z,63.99
2023-11-18T00:11:26.757Z,64.08
2023-11-18T00:14:28.737Z,64.12
2023-11-18T00:17:33.811Z,64.10
2023-11-18T00:20:37.006Z,64.14
2023-11-18T00:23:39.200Z,64.07
2023-11-18T00:26:41.321Z,64.19
2023-11-18T00:29:44.928Z,64.10
2023-11-18T00:32:47.172Z,64.21
2023-11-18T00:35:49.622Z,64.23
2023-11-18T00:38:52.303Z,64.25
2023-11-18T00:41:55.308Z,64.12
2023-11-18T00:44:57.876Z,64.22
2023-11-18T00:48:00.334Z,64.14
2023-11-18T00:51:02.413Z,64.14
2023-11-18T00:54:06.971Z,64.25
2023-11-18T00:57:08.918Z,64.24
2023-11-18T01:00:15.460Z,64.24
2023-11-18T01:03:17.602Z,63.93
2023-11-18T01:06:20.027Z,63.81
2023-11-18T01:09:22.277Z,63.98
2023-11-18T01:12:24.559Z,64.05
2023-11-18T01:15:26.551Z,64.11
2023-11-18T01:18:29.347Z,64.11
2023-11-18T01:21:31.384Z,64.16
2023-11-18T01:24:34.743Z,64.17
2023-11-18T01:27:36.901Z,64.14
2023-11-18T01:30:39.236Z,64.19
2023-11-18T01:33:41.716Z,64.16
2023-11-18T01:36:44.989Z,64.18
2023-11-18T01:39:49.473Z,64.17
2023-11-18T01:42:51.895Z,64.24
2023-11-18T01:45:59.046Z,64.18
2023-11-18T01:49:01.548Z,64.22
2023-11-18T01:52:04.030Z,64.26
2023-11-18T01:55:10.158Z,64.23
2023-11-18T01:58:14.328Z,64.25
2023-11-18T02:01:19.068Z,64.27
2023-11-18T02:04:22.168Z,64.31
2023-11-18T02:07:25.530Z,64.28
2023-11-18T02:10:28.616Z,64.26
2023-11-18T02:13:35.774Z,64.28
2023-11-18T02:16:39.960Z,64.30
2023-11-18T02:19:43.718Z,64.28
2023-11-18T02:22:47.664Z,64.29
2023-11-18T02:25:50.446Z,64.28
2023-11-18T02:28:54.962Z,64.28
2023-11-18T02:32:04.299Z,64.28
2023-11-18T02:35:17.662Z,64.33
2023-11-18T02:38:24.281Z,64.31
2023-11-18T02:41:30.573Z,64.34
2023-11-18T02:44:33.825Z,64.30
2023-11-18T02:47:36.140Z,64.33
2023-11-18T02:50:39.188Z,64.39
2023-11-18T02:53:42.474Z,64.39
2023-11-18T02:56:44.865Z,64.38
2023-11-18T02:59:48.169Z,64.39
2023-11-18T03:02:53.561Z,64.40
2023-11-18T03:05:56.074Z,64.36
2023-11-18T03:08:58.409Z,64.42
2023-11-18T03:12:01.599Z,64.01
2023-11-18T03:15:04.349Z,62.76
2023-11-18T03:18:06.979Z,64.15
2023-11-18T03:21:16.037Z,63.74
2023-11-18T03:24:18.114Z,64.94
2023-11-18T03:27:21.034Z,65.84
2023-11-18T03:30:23.099Z,65.27
2023-11-18T03:33:25.470Z,64.83
2023-11-18T03:36:28.750Z,64.68
2023-11-18T03:39:31.783Z,64.58
2023-11-18T03:42:33.787Z,64.52
2023-11-18T03:45:36.048Z,64.50
2023-11-18T03:48:38.048Z,64.45
2023-11-18T03:51:40.364Z,64.44
2023-11-18T03:54:43.046Z,64.34
2023-11-18T03:57:46.762Z,64.34
2023-11-18T04:00:48.903Z,64.25
2023-11-18T04:03:51.764Z,64.22
2023-11-18T04:06:53.859Z,64.25
2023-11-18T04:09:56.122Z,64.28
2023-11-18T04:12:58.248Z,64.24
2023-11-18T04:16:01.302Z,64.24
2023-11-18T04:19:03.310Z,64.19
2023-11-18T04:22:06.514Z,64.19
2023-11-18T04:25:12.544Z,64.13
2023-11-18T04:28:14.847Z,64.17
2023-11-18T04:31:17.037Z,64.16
2023-11-18T04:34:19.449Z,64.15
2023-11-18T04:37:22.077Z,64.15
2023-11-18T04:40:24.578Z,64.17
2023-11-18T04:43:34.919Z,64.15
2023-11-18T04:46:46.222Z,64.10
2023-11-18T04:49:48.378Z,64.08
2023-11-18T04:52:50.700Z,64.09
2023-11-18T04:55:52.811Z,64.10
2023-11-18T04:58:55.376Z,64.12
2023-11-18T05:01:57.607Z,64.09
2023-11-18T05:04:59.979Z,64.08
2023-11-18T05:08:04.162Z,64.12
2023-11-18T05:11:06.713Z,64.17
2023-11-18T05:14:08.943Z,64.14
2023-11-18T05:17:11.413Z,63.91
2023-11-18T05:20:14.222Z,64.24
2023-11-18T05:23:16.672Z,64.62
2023-11-18T05:26:19.481Z,64.67
2023-11-18T05:29:22.218Z,64.53
2023-11-18T05:32:24.293Z,64.24
2023-11-18T05:35:29.557Z,64.15
2023-11-18T05:38:35.774Z,64.05
2023-11-18T05:41:40.853Z,64.07
2023-11-18T05:44:43.827Z,64.01
2023-11-18T05:47:46.194Z,63.98
2023-11-18T05:50:49.328Z,63.97
2023-11-18T05:53:53.317Z,63.99
2023-11-18T05:56:57.976Z,63.96
2023-11-18T06:00:00.860Z,63.97
2023-11-18T06:03:03.065Z,64.01
2023-11-18T06:06:13.857Z,63.98
2023-11-18T06:09:22.253Z,64.01
2023-11-18T06:12:24.693Z,63.85
2023-11-18T06:15:26.808Z,63.65
2023-11-18T06:18:29.564Z,63.49
2023-11-18T06:21:32.402Z,63.33
2023-11-18T06:24:34.816Z,63.36
2023-11-18T06:27:36.908Z,63.38
2023-11-18T06:30:40.157Z,63.46
2023-11-18T06:33:47.070Z,63.44
2023-11-18T06:36:49.646Z,63.38
2023-11-18T06:39:51.646Z,63.38
2023-11-18T06:42:55.730Z,63.37
2023-11-18T06:45:57.727Z,63.48
2023-11-18T06:49:04.675Z,63.54
2023-11-18T06:52:06.650Z,63.53
2023-11-18T06:55:09.570Z,63.60
2023-11-18T06:58:11.697Z,63.55
2023-11-18T07:01:16.100Z,63.62
2023-11-18T07:04:18.309Z,63.60
2023-11-18T07:07:20.759Z,63.65
2023-11-18T07:10:22.868Z,63.67
2023-11-18T07:13:25.505Z,63.71
2023-11-18T07:16:27.751Z,63.73
2023-11-18T07:19:30.185Z,63.76
2023-11-18T07:22:32.164Z,63.70
2023-11-18T07:25:35.437Z,63.76
2023-11-18T07:28:38.062Z,63.66
2023-11-18T07:31:41.025Z,63.58
2023-11-18T07:34:43.352Z,63.50
2023-11-18T07:37:45.859Z,63.44
2023-11-18T07:40:48.908Z,63.44
2023-11-18T07:43:55.909Z,63.37
2023-11-18T07:46:58.387Z,63.38
2023-11-18T07:50:01.266Z,63.30
2023-11-18T07:53:04.300Z,63.28
2023-11-18T07:56:09.163Z,63.30
2023-11-18T07:59:11.149Z,63.33
2023-11-18T08:02:15.873Z,63.27
2023-11-18T08:05:20.349Z,63.23
2023-11-18T08:08:23.183Z,63.21
2023-11-18T08:11:25.463Z,63.23
2023-11-18T08:14:28.094Z,63.18
2023-11-18T08:17:30.237Z,63.17
2023-11-18T08:20:32.657Z,62.97
2023-11-18T08:23:34.843Z,62.97
2023-11-18T08:26:37.399Z,63.05
2023-11-18T08:29:39.891Z,63.05
2023-11-18T08:32:46.632Z,63.85
2023-11-18T08:35:50.098Z,64.06
2023-11-18T08:38:52.384Z,63.90
2023-11-18T08:41:54.408Z,63.71
2023-11-18T08:44:56.966Z,63.59
2023-11-18T08:48:00.894Z,63.53
2023-11-18T08:51:03.453Z,63.41
2023-11-18T08:54:23.419Z,63.33
2023-11-18T08:57:26.528Z,63.18
2023-11-18T09:00:47.561Z,63.21
2023-11-18T09:03:53.779Z,62.85
2023-11-18T09:07:01.462Z,62.87
2023-11-18T09:10:04.211Z,62.85
2023-11-18T09:13:07.282Z,62.74
2023-11-18T09:16:10.650Z,62.70
2023-11-18T09:19:13.123Z,62.61
2023-11-18T09:22:20.252Z,62.60
2023-11-18T09:25:23.467Z,62.66
2023-11-18T09:28:31.102Z,62.62
2023-11-18T09:31:34.781Z,62.58
2023-11-18T09:34:37.373Z,62.57
2023-11-18T09:37:41.983Z,62.58
2023-11-18T09:40:47.380Z,62.55
2023-11-18T09:43:54.561Z,62.62
2023-11-18T09:47:06.027Z,62.66
2023-11-18T09:50:11.761Z,62.65
2023-11-18T09:53:15.760Z,62.95
2023-11-18T09:56:35.436Z,63.29
2023-11-18T10:00:23.975Z,63.99
2023-11-18T10:03:26.435Z,62.98
2023-11-18T10:06:31.205Z,63.79
2023-11-18T10:09:38.666Z,63.77
2023-11-18T10:12:41.184Z,63.63
2023-11-18T10:15:51.898Z,63.46
2023-11-18T10:18:55.078Z,63.30
2023-11-18T10:21:58.094Z,63.26
2023-11-18T10:25:02.645Z,63.14
2023-11-18T10:28:06.110Z,63.04
2023-11-18T10:31:10.730Z,62.90
2023-11-18T10:34:17.442Z,62.92
2023-11-18T10:37:19.813Z,62.90
2023-11-18T10:40:25.281Z,62.74
2023-11-18T10:43:30.300Z,62.68
2023-11-18T10:46:33.460Z,62.90
2023-11-18T10:49:38.588Z,62.86
2023-11-18T10:52:42.707Z,62.71
2023-11-18T10:55:45.291Z,62.72
2023-11-18T10:58:47.854Z,62.51
2023-11-18T11:01:51.155Z,62.13
2023-11-18T11:04:54.173Z,62.21
2023-11-18T11:07:57.305Z,62.15
2023-11-18T11:11:07.854Z,62.06
2023-11-18T11:14:13.244Z,61.87
2023-11-18T11:17:26.781Z,61.84
2023-11-18T11:20:34.458Z,61.90
2023-11-18T11:24:09.978Z,61.92
2023-11-18T11:27:40.220Z,61.93
2023-11-18T11:31:00.589Z,61.79
2023-11-18T11:34:12.238Z,61.85
2023-11-18T11:37:16.300Z,61.76
2023-11-18T11:40:23.778Z,61.60
2023-11-18T11:43:29.210Z,61.74
2023-11-18T11:46:36.218Z,61.81
2023-11-18T11:49:48.931Z,61.82
2023-11-18T11:53:14.183Z,61.81
2023-11-18T11:56:22.501Z,61.78
2023-11-18T11:59:56.980Z,61.65
2023-11-18T12:03:05.326Z,61.56
2023-11-18T12:06:11.720Z,61.22
2023-11-18T12:09:21.198Z,60.68
2023-11-18T12:12:27.908Z,60.43
2023-11-18T12:16:07.853Z,60.38
2023-11-18T12:19:34.092Z,60.24
2023-11-18T12:23:15.240Z,60.38
2023-11-18T12:26:41.229Z,60.58
2023-11-18T12:29:47.052Z,60.48
2023-11-18T12:33:10.565Z,60.34
2023-11-18T12:36:37.212Z,60.75
2023-11-18T12:40:13.898Z,61.65
2023-11-18T12:43:51.436Z,60.55
2023-11-18T12:47:32.345Z,61.76
2023-11-18T12:50:47.497Z,62.49
2023-11-18T12:53:51.445Z,61.87
2023-11-18T12:56:56.041Z,61.62
2023-11-18T12:59:58.829Z,61.56
2023-11-18T13:03:04.701Z,61.12
2023-11-18T13:06:07.344Z,60.78
2023-11-18T13:09:11.927Z,63.50
2023-11-18T13:12:20.404Z,62.11
2023-11-18T13:15:25.800Z,61.58
2023-11-18T13:18:28.100Z,61.45
2023-11-18T13:21:31.901Z,60.93
2023-11-18T13:24:34.731Z,60.84
2023-11-18T13:27:39.761Z,60.72
2023-11-18T13:30:44.096Z,60.75
2023-11-18T13:33:52.822Z,60.64
2023-11-18T13:36:56.087Z,60.58
2023-11-18T13:40:01.291Z,60.87
2023-11-18T13:43:10.047Z,60.80
2023-11-18T13:46:21.335Z,60.77
2023-11-18T13:49:31.137Z,60.89
2023-11-18T13:52:40.175Z,60.88
2023-11-18T13:55:42.255Z,61.00
2023-11-18T13:58:46.690Z,60.88
2023-11-18T14:01:48.870Z,60.80
2023-11-18T14:04:51.803Z,60.74
2023-11-18T14:08:11.796Z,60.57
2023-11-18T14:11:18.235Z,60.67
2023-11-18T14:14:20.399Z,60.90
2023-11-18T14:17:35.552Z,60.91
2023-11-18T14:20:43.508Z,61.28
2023-11-18T14:23:45.965Z,61.39
2023-11-18T14:26:48.178Z,61.28
2023-11-18T14:29:51.156Z,61.26
2023-11-18T14:32:54.324Z,61.00
2023-11-18T14:35:58.695Z,60.84
2023-11-18T14:39:00.845Z,61.03
2023-11-18T14:42:05.103Z,61.12
2023-11-18T14:45:09.510Z,61.00
2023-11-18T14:48:12.643Z,60.92
2023-11-18T14:51:14.839Z,61.15
2023-11-18T14:54:17.289Z,61.12
2023-11-18T14:57:20.366Z,60.97
2023-11-18T15:00:26.272Z,60.99
2023-11-18T15:03:28.747Z,61.02
2023-11-18T15:06:31.914Z,61.19
2023-11-18T15:09:34.030Z,61.22
2023-11-18T15:12:36.384Z,61.23
2023-11-18T15:15:38.429Z,61.16
2023-11-18T15:18:41.331Z,61.09
2023-11-18T15:21:43.627Z,60.95
2023-11-18T15:24:45.983Z,61.01
2023-11-18T15:27:48.844Z,60.99
2023-11-18T15:30:51.679Z,61.11
2023-11-18T15:33:54.066Z,61.14
2023-11-18T15:36:56.469Z,61.56
2023-11-18T15:39:59.011Z,61.96
2023-11-18T15:43:01.333Z,62.09
2023-11-18T15:46:07.206Z,62.03
2023-11-18T15:49:09.611Z,62.26
2023-11-18T15:52:13.240Z,62.10
2023-11-18T15:55:16.418Z,61.76
2023-11-18T15:58:20.706Z,61.52
2023-11-18T16:01:23.625Z,61.43
2023-11-18T16:04:25.630Z,61.50
2023-11-18T16:07:27.953Z,61.45
2023-11-18T16:10:31.005Z,61.48
2023-11-18T16:13:35.468Z,61.50
2023-11-18T16:16:38.694Z,61.47
2023-11-18T16:19:41.018Z,61.55
2023-11-18T16:22:50.758Z,61.42
2023-11-18T16:25:53.208Z,61.51
2023-11-18T16:28:56.718Z,61.33
2023-11-18T16:31:59.236Z,61.64
2023-11-18T16:35:01.672Z,61.67
2023-11-18T16:38:04.167Z,61.65
2023-11-18T16:41:06.450Z,61.69
2023-11-18T16:44:11.008Z,61.65
2023-11-18T16:47:13.223Z,61.89
2023-11-18T16:50:15.789Z,61.90
2023-11-18T16:53:19.383Z,62.15
2023-11-18T16:56:22.178Z,63.58
2023-11-18T16:59:24.614Z,64.41
2023-11-18T17:02:28.098Z,63.96
2023-11-18T17:05:31.692Z,63.12
2023-11-18T17:08:35.289Z,62.59
2023-11-18T17:11:37.398Z,62.80
2023-11-18T17:14:40.189Z,63.34
2023-11-18T17:17:44.050Z,63.14
2023-11-18T17:20:47.585Z,62.98
2023-11-18T17:23:49.775Z,62.70
2023-11-18T17:26:52.849Z,62.58
2023-11-18T17:29:56.816Z,62.42
2023-11-18T17:32:59.167Z,62.54
2023-11-18T17:36:03.031Z,62.52
2023-11-18T17:39:06.164Z,62.50
2023-11-18T17:42:08.246Z,62.56
2023-11-18T17:45:13.047Z,62.51
2023-11-18T17:48:15.676Z,62.68
2023-11-18T17:51:18.059Z,62.58
2023-11-18T17:54:20.107Z,62.83
2023-11-18T17:57:22.444Z,62.79
2023-11-18T18:00:25.522Z,62.86
2023-11-18T18:03:28.426Z,62.92
2023-11-18T18:06:31.740Z,62.98
2023-11-18T18:09:34.178Z,63.08
2023-11-18T18:12:36.886Z,62.97
2023-11-18T18:15:39.595Z,63.04
2023-11-18T18:18:42.064Z,63.08
2023-11-18T18:21:44.396Z,63.31
2023-11-18T18:24:46.772Z,63.29
2023-11-18T18:27:51.581Z,63.16
2023-11-18T18:30:54.727Z,63.27
2023-11-18T18:33:57.134Z,63.20
2023-11-18T18:37:00.136Z,63.15
2023-11-18T18:40:04.623Z,63.20
2023-11-18T18:43:07.792Z,63.39
2023-11-18T18:46:11.079Z,63.47
2023-11-18T18:49:13.223Z,63.64
2023-11-18T18:52:15.748Z,63.80
2023-11-18T18:55:17.997Z,64.13
2023-11-18T18:58:20.484Z,64.27
2023-11-18T19:01:23.876Z,64.30
2023-11-18T19:04:26.299Z,64.66
2023-11-18T19:07:30.254Z,64.44
2023-11-18T19:10:33.811Z,64.93
2023-11-18T19:13:35.923Z,64.62
2023-11-18T19:16:41.995Z,64.33
2023-11-18T19:19:45.498Z,64.16
2023-11-18T19:22:48.281Z,68.11
2023-11-18T19:25:50.378Z,68.18
2023-11-18T19:28:52.691Z,68.50
2023-11-18T19:31:55.289Z,69.11
2023-11-18T19:34:57.705Z,68.66
2023-11-18T19:38:07.929Z,66.31
2023-11-18T19:41:10.561Z,67.81
2023-11-18T19:44:13.203Z,68.86
2023-11-18T19:47:15.972Z,68.66
2023-11-18T19:50:27.112Z,69.81
2023-11-18T19:53:30.341Z,68.54
2023-11-18T19:56:32.720Z,66.72
2023-11-18T19:59:35.129Z,68.21
2023-11-18T20:02:37.507Z,68.68
2023-11-18T20:05:40.659Z,69.38
2023-11-18T20:08:42.977Z,69.84
2023-11-18T20:12:04.464Z,69.42
2023-11-18T20:15:08.796Z,66.75
2023-11-18T20:18:11.676Z,65.91
2023-11-18T20:21:14.112Z,65.46
2023-11-18T20:24:17.858Z,65.22
2023-11-18T20:27:22.262Z,65.12
2023-11-18T20:30:26.238Z,64.97
2023-11-18T20:33:28.449Z,65.02
2023-11-18T20:36:31.711Z,64.92
2023-11-18T20:39:36.923Z,64.88
2023-11-18T20:42:41.847Z,64.84
2023-11-18T20:45:44.193Z,64.84
2023-11-18T20:48:47.893Z,64.85
2023-11-18T20:51:51.015Z,64.85
2023-11-18T20:54:53.674Z,64.81
2023-11-18T20:57:56.072Z,64.86
2023-11-18T21:00:58.673Z,64.86
2023-11-18T21:04:01.253Z,64.98
2023-11-18T21:07:04.387Z,65.10
2023-11-18T21:10:07.187Z,65.15
2023-11-18T21:13:10.056Z,65.08
2023-11-18T21:16:14.044Z,65.06
2023-11-18T21:19:16.658Z,65.16
2023-11-18T21:22:19.286Z,65.05
2023-11-18T21:25:21.700Z,65.08
2023-11-18T21:28:27.201Z,65.20
2023-11-18T21:31:29.688Z,65.38
2023-11-18T21:34:31.772Z,65.30
2023-11-18T21:37:37.213Z,65.14
2023-11-18T21:40:42.117Z,65.05
2023-11-18T21:43:44.661Z,65.06
2023-11-18T21:46:46.711Z,65.08
2023-11-18T21:49:52.189Z,65.24
2023-11-18T21:52:55.154Z,65.28
2023-11-18T21:56:01.280Z,65.18
2023-11-18T21:59:06.041Z,65.51
2023-11-18T22:02:08.855Z,65.20
2023-11-18T22:05:12.107Z,65.28
2023-11-18T22:08:20.354Z,65.37
2023-11-18T22:11:23.336Z,65.35
2023-11-18T22:14:28.765Z,65.30
2023-11-18T22:17:31.457Z,65.41
2023-11-18T22:20:33.841Z,65.44
2023-11-18T22:23:38.599Z,65.56
2023-11-18T22:26:44.679Z,65.53
2023-11-18T22:29:50.410Z,65.64
2023-11-18T22:32:54.629Z,65.61
2023-11-18T22:35:56.814Z,65.75
2023-11-18T22:38:59.158Z,65.66
2023-11-18T22:42:01.237Z,66.02
2023-11-18T22:45:04.768Z,66.06
2023-11-18T22:48:10.200Z,66.07
2023-11-18T22:51:12.965Z,65.85
2023-11-18T22:54:17.485Z,65.95
2023-11-18T22:57:19.754Z,65.94
2023-11-18T23:00:40.784Z,66.02
2023-11-18T23:03:43.143Z,66.18
2023-11-18T23:06:55.705Z,66.13
2023-11-18T23:09:59.338Z,66.20
2023-11-18T23:13:01.426Z,66.27
2023-11-18T23:16:04.908Z,66.32
2023-11-18T23:19:11.706Z,66.36
2023-11-18T23:22:14.127Z,66.41
2023-11-18T23:25:16.257Z,66.49
2023-11-18T23:28:24.741Z,66.63
2023-11-18T23:31:26.897Z,66.60
2023-11-18T23:34:29.224Z,66.69
2023-11-18T23:37:31.394Z,66.59
2023-11-18T23:40:34.574Z,66.63
2023-11-18T23:43:37.409Z,66.80
2023-11-18T23:46:40.101Z,66.76
2023-11-18T23:49:42.332Z,66.81
2023-11-18T23:52:44.622Z,66.81
2023-11-18T23:55:46.609Z,66.88
2023-11-18T23:58:48.966Z,66.85
